Time;durP1;ratioP1;P1;durP2;ratioP2;P2;SDS_P1;SDS_P2;PMS_P1;PMS_P2;Temp;Humidity;BMP_temperature;BMP_pressure;BME280_temperature;BME280_humidity;BME280_pressure;Samples;Min_cycle;Max_cycle;Signal;HPM_P1;HPM_P2
2021/03/19 00:01:41;;;;;;;8.35;7.40;;;7.00;99.90;;;;;;4994310;28;20201;-81
2021/03/19 00:04:07;;;;;;;10.10;8.68;;;7.00;99.90;;;;;;5011853;28;20216;-82
2021/03/19 00:06:34;;;;;;;8.52;7.70;;;6.90;99.90;;;;;;4993628;28;20171;-82
2021/03/19 00:09:02;;;;;;;9.55;7.38;;;6.80;99.90;;;;;;5012031;28;20317;-82
2021/03/19 00:11:28;;;;;;;8.63;7.82;;;6.80;99.90;;;;;;5012244;28;20181;-81
2021/03/19 00:13:56;;;;;;;8.00;6.85;;;6.70;99.90;;;;;;4978406;28;20174;-81
2021/03/19 00:16:22;;;;;;;11.17;7.90;;;6.60;99.90;;;;;;5011803;28;20180;-82
2021/03/19 00:18:48;;;;;;;10.35;8.43;;;6.60;99.90;;;;;;5012267;28;20934;-81
2021/03/19 00:21:27;;;;;;;10.95;9.85;;;6.50;99.90;;;;;;5015832;28;20177;-82
2021/03/19 00:23:53;;;;;;;8.63;7.85;;;6.50;99.90;;;;;;5010665;28;20194;-81
2021/03/19 00:26:30;;;;;;;7.95;7.15;;;6.50;99.90;;;;;;4994089;28;20177;-80
2021/03/19 00:28:58;;;;;;;9.05;8.15;;;6.40;99.90;;;;;;5011936;28;20650;-82
2021/03/19 00:31:32;;;;;;;8.50;7.78;;;6.40;99.90;;;;;;5011630;28;20185;-80
2021/03/19 00:34:00;;;;;;;8.50;7.68;;;6.30;99.90;;;;;;5010620;28;20663;-82
2021/03/19 00:36:34;;;;;;;9.80;8.82;;;6.20;99.90;;;;;;5011447;28;20170;-81
2021/03/19 00:39:02;;;;;;;11.20;8.00;;;6.20;99.90;;;;;;4993931;28;20230;-83
2021/03/19 00:41:36;;;;;;;10.40;9.40;;;6.20;99.90;;;;;;5011879;28;20173;-82
2021/03/19 00:44:05;;;;;;;9.10;8.25;;;6.10;99.90;;;;;;5011791;28;20201;-82
2021/03/19 00:46:34;;;;;;;7.78;6.80;;;6.10;99.90;;;;;;5011171;28;20167;-81
2021/03/19 00:48:59;;;;;;;8.77;8.07;;;6.00;99.90;;;;;;5010358;28;20202;-82
2021/03/19 00:51:27;;;;;;;9.50;8.35;;;6.00;99.90;;;;;;4993296;28;20222;-81
2021/03/19 00:53:55;;;;;;;11.10;10.00;;;6.00;99.90;;;;;;5011272;28;20162;-81
2021/03/19 00:56:23;;;;;;;11.43;9.05;;;5.90;99.90;;;;;;5013446;28;20178;-82
2021/03/19 00:58:52;;;;;;;9.93;8.93;;;5.90;99.90;;;;;;5014042;28;20194;-81
2021/03/19 01:01:18;;;;;;;9.88;8.88;;;5.90;99.90;;;;;;4993769;28;20174;-81
2021/03/19 01:03:43;;;;;;;14.90;9.13;;;5.80;99.90;;;;;;4993936;28;20202;-81
2021/03/19 01:06:10;;;;;;;9.63;8.53;;;5.80;99.90;;;;;;5011688;28;20177;-82
2021/03/19 01:08:42;;;;;;;10.20;9.15;;;5.70;99.90;;;;;;5011238;28;20637;-81
2021/03/19 01:11:08;;;;;;;8.82;8.00;;;5.70;99.90;;;;;;5011604;28;20166;-82
2021/03/19 01:13:34;;;;;;;9.40;8.50;;;5.70;99.90;;;;;;5010483;28;20396;-82
2021/03/19 01:16:09;;;;;;;10.60;9.40;;;5.70;99.90;;;;;;5011466;28;20186;-82
2021/03/19 01:18:43;;;;;;;8.23;7.50;;;5.70;99.90;;;;;;5011355;28;20924;-81
2021/03/19 01:21:09;;;;;;;9.00;8.13;;;5.60;99.90;;;;;;4993724;28;20534;-81
2021/03/19 01:23:37;;;;;;;10.15;8.75;;;5.60;99.90;;;;;;5013103;28;20430;-81
2021/03/19 01:26:03;;;;;;;8.80;7.90;;;5.60;99.90;;;;;;4996552;28;20158;-81
2021/03/19 01:28:48;;;;;;;8.68;7.97;;;5.60;99.90;;;;;;4981075;28;20667;-80
2021/03/19 01:31:19;;;;;;;8.80;7.93;;;5.50;99.90;;;;;;4997500;28;20166;-82
2021/03/19 01:33:50;;;;;;;9.52;8.55;;;5.50;99.90;;;;;;5018102;28;20250;-81
2021/03/19 01:36:18;;;;;;;9.77;8.38;;;5.50;99.90;;;;;;4997573;28;20175;-81
2021/03/19 01:39:02;;;;;;;12.20;10.98;;;5.50;99.90;;;;;;5000681;28;20245;-80
2021/03/19 01:41:32;;;;;;;11.25;9.25;;;5.40;99.90;;;;;;5015175;28;20174;-80
2021/03/19 01:44:27;;;;;;;10.10;8.65;;;5.40;99.90;;;;;;5014871;28;20202;-81
2021/03/19 01:47:40;;;;;;;8.48;7.68;;;5.40;99.90;;;;;;4997326;28;20170;-82
2021/03/19 01:50:43;;;;;;;9.30;8.30;;;5.40;99.90;;;;;;4998869;28;20284;-82
2021/03/19 01:53:47;;;;;;;8.73;7.93;;;5.40;99.90;;;;;;4997320;28;20166;-80
2021/03/19 01:56:50;;;;;;;9.40;8.40;;;5.30;99.90;;;;;;5014849;28;20162;-82
2021/03/19 01:59:53;;;;;;;8.52;7.63;;;5.30;99.90;;;;;;4980420;28;20218;-83
2021/03/19 02:02:57;;;;;;;9.07;8.20;;;5.30;99.90;;;;;;5014426;28;20189;-83
2021/03/19 02:06:02;;;;;;;8.63;7.82;;;5.30;99.90;;;;;;4997338;28;20541;-82
2021/03/19 02:09:06;;;;;;;9.88;8.82;;;5.20;99.90;;;;;;4996608;28;20170;-81
2021/03/19 02:12:12;;;;;;;9.10;8.15;;;5.20;99.90;;;;;;5000423;28;20178;-82
2021/03/19 02:15:19;;;;;;;10.10;9.10;;;5.20;99.90;;;;;;5014452;28;20167;-81
2021/03/19 02:18:22;;;;;;;10.27;9.30;;;5.20;99.90;;;;;;4996523;28;20166;-81
2021/03/19 02:21:25;;;;;;;8.45;7.65;;;5.20;99.90;;;;;;5014318;28;20186;-81
2021/03/19 02:24:28;;;;;;;10.07;9.07;;;5.20;99.90;;;;;;5014031;28;20204;-81
2021/03/19 02:27:32;;;;;;;10.65;9.55;;;5.20;99.90;;;;;;4996111;28;20158;-82
2021/03/19 02:30:37;;;;;;;10.73;9.65;;;5.20;99.90;;;;;;5002068;28;20227;-80
2021/03/19 02:33:21;;;;;;;13.18;9.77;;;5.30;99.90;;;;;;5025481;28;20169;-80
2021/03/19 02:35:57;;;;;;;11.32;10.10;;;5.30;99.90;;;;;;5014916;28;20170;-82
2021/03/19 02:38:43;;;;;;;10.35;8.98;;;5.30;99.90;;;;;;5033736;28;20177;-81
2021/03/19 02:41:16;;;;;;;10.18;9.18;;;5.30;99.90;;;;;;5016157;28;20204;-82
2021/03/19 02:43:45;;;;;;;10.43;9.30;;;5.20;99.90;;;;;;5016017;28;20251;-81
2021/03/19 02:46:14;;;;;;;11.10;9.88;;;5.20;99.90;;;;;;5033130;28;20248;-81
2021/03/19 02:48:40;;;;;;;11.27;10.00;;;5.10;99.90;;;;;;5037120;28;20181;-81
2021/03/19 02:51:07;;;;;;;17.70;11.50;;;5.10;99.90;;;;;;5033729;28;20165;-82
2021/03/19 02:53:34;;;;;;;13.25;11.40;;;5.10;99.90;;;;;;5015666;28;21144;-83
2021/03/19 02:56:06;;;;;;;10.50;9.38;;;5.00;99.90;;;;;;5015734;28;20207;-82
2021/03/19 02:58:32;;;;;;;11.02;9.77;;;5.00;99.90;;;;;;5032978;28;20518;-82
2021/03/19 03:00:58;;;;;;;11.15;10.00;;;5.00;99.90;;;;;;5032326;28;20645;-82
2021/03/19 03:03:23;;;;;;;12.88;10.32;;;4.90;99.90;;;;;;5033379;28;20328;-80
2021/03/19 03:05:52;;;;;;;11.17;9.33;;;4.90;99.90;;;;;;5015957;28;20538;-81
2021/03/19 03:08:20;;;;;;;10.98;9.82;;;4.90;99.90;;;;;;5032730;28;20188;-82
2021/03/19 03:10:47;;;;;;;11.60;10.25;;;4.90;99.90;;;;;;5032084;28;20288;-81
2021/03/19 03:13:16;;;;;;;12.13;10.82;;;4.80;99.90;;;;;;5033359;28;20197;-81
2021/03/19 03:15:45;;;;;;;11.13;9.95;;;4.80;99.90;;;;;;5015164;28;20580;-81
2021/03/19 03:18:12;;;;;;;11.50;10.38;;;4.80;99.90;;;;;;5033023;28;20170;-81
2021/03/19 03:20:45;;;;;;;11.38;10.25;;;4.80;99.90;;;;;;5015564;28;20217;-82
2021/03/19 03:23:17;;;;;;;12.70;11.38;;;4.70;99.90;;;;;;5015589;28;20208;-81
2021/03/19 03:25:43;;;;;;;12.82;10.93;;;4.70;99.90;;;;;;5038251;28;20307;-81
2021/03/19 03:28:12;;;;;;;10.68;9.55;;;4.70;99.90;;;;;;5032814;28;20162;-82
2021/03/19 03:30:47;;;;;;;15.95;10.52;;;4.60;99.90;;;;;;5033021;28;20560;-81
2021/03/19 03:33:16;;;;;;;10.75;9.65;;;4.60;99.90;;;;;;5044800;28;20187;-81
2021/03/19 03:35:53;;;;;;;10.77;9.68;;;4.60;99.90;;;;;;4998929;28;20629;-81
2021/03/19 03:38:24;;;;;;;10.25;9.15;;;4.60;99.90;;;;;;5014812;28;20180;-81
2021/03/19 03:40:55;;;;;;;11.68;10.57;;;4.60;99.90;;;;;;4998712;28;20201;-81
2021/03/19 03:43:35;;;;;;;12.85;10.43;;;4.50;99.90;;;;;;5033156;28;20197;-81
2021/03/19 03:46:05;;;;;;;13.60;12.20;;;4.50;99.90;;;;;;5032014;28;20157;-80
2021/03/19 03:48:37;;;;;;;11.52;10.32;;;4.50;99.90;;;;;;5014258;28;20701;-81
2021/03/19 03:51:11;;;;;;;14.30;12.80;;;4.50;99.90;;;;;;5032068;28;20170;-83
2021/03/19 03:53:39;;;;;;;12.48;10.15;;;4.40;99.90;;;;;;5014471;28;20173;-81
2021/03/19 03:56:13;;;;;;;14.05;11.55;;;4.40;99.90;;;;;;5032741;28;20177;-82
2021/03/19 03:58:43;;;;;;;11.65;10.13;;;4.40;99.90;;;;;;5032286;28;20174;-81
2021/03/19 04:01:09;;;;;;;11.77;10.52;;;4.40;99.90;;;;;;5019457;28;20192;-80
2021/03/19 04:03:38;;;;;;;11.93;10.02;;;4.40;99.90;;;;;;5038413;28;20212;-81
2021/03/19 04:06:05;;;;;;;13.70;10.63;;;4.40;99.90;;;;;;5015049;28;20253;-81
2021/03/19 04:08:32;;;;;;;13.82;10.32;;;4.30;99.90;;;;;;5024022;28;20193;-80
2021/03/19 04:11:04;;;;;;;13.60;11.43;;;4.30;99.90;;;;;;5054292;28;20169;-82
2021/03/19 04:13:33;;;;;;;12.77;11.25;;;4.30;99.90;;;;;;5055248;28;20169;-81
2021/03/19 04:16:13;;;;;;;14.55;12.05;;;4.30;99.90;;;;;;5055428;28;20165;-81
2021/03/19 04:18:42;;;;;;;13.40;10.95;;;4.30;99.90;;;;;;5037668;28;20180;-81
2021/03/19 04:21:13;;;;;;;14.88;11.45;;;4.30;99.90;;;;;;5054283;28;20165;-83
2021/03/19 04:24:02;;;;;;;13.73;12.20;;;4.30;99.90;;;;;;5042763;28;20200;-82
2021/03/19 04:26:39;;;;;;;12.23;11.02;;;4.20;99.90;;;;;;5007459;28;20189;-81
2021/03/19 04:29:07;;;;;;;12.50;11.23;;;4.20;99.90;;;;;;5015953;28;20196;-81
2021/03/19 04:31:35;;;;;;;13.75;10.15;;;4.20;99.90;;;;;;5032853;28;20165;-80
2021/03/19 04:34:04;;;;;;;11.57;10.07;;;4.20;99.90;;;;;;5033033;28;20178;-80
2021/03/19 04:36:44;;;;;;;12.82;11.02;;;4.20;99.90;;;;;;5031476;28;20189;-80
2021/03/19 04:39:26;;;;;;;13.00;10.82;;;4.20;99.90;;;;;;5019185;28;20193;-80
2021/03/19 04:42:00;;;;;;;13.43;11.20;;;4.20;99.90;;;;;;5014401;28;20185;-80
2021/03/19 04:44:38;;;;;;;15.82;12.75;;;4.20;99.90;;;;;;5031609;28;20215;-80
2021/03/19 04:47:05;;;;;;;14.60;11.35;;;4.20;99.90;;;;;;4996860;28;20185;-82
2021/03/19 04:49:55;;;;;;;14.07;11.07;;;4.10;99.90;;;;;;5031396;28;20203;-81
2021/03/19 04:52:23;;;;;;;13.68;11.32;;;4.10;99.90;;;;;;5013886;28;20169;-80
2021/03/19 04:54:54;;;;;;;12.75;10.20;;;4.10;99.90;;;;;;5014061;28;20814;-80
2021/03/19 04:57:25;;;;;;;16.53;13.40;;;4.10;99.90;;;;;;5031796;28;20253;-81
2021/03/19 04:59:55;;;;;;;14.95;12.05;;;4.10;99.90;;;;;;5028408;28;20216;-81
2021/03/19 05:02:34;;;;;;;15.68;13.02;;;4.10;99.90;;;;;;5019854;28;20162;-81
2021/03/19 05:05:00;;;;;;;13.80;11.73;;;4.10;99.90;;;;;;5037773;28;20239;-81
2021/03/19 05:07:36;;;;;;;15.10;12.15;;;4.10;99.90;;;;;;5017393;28;20162;-81
2021/03/19 05:10:05;;;;;;;13.00;11.70;;;4.10;99.90;;;;;;5023363;28;20189;-81
2021/03/19 05:12:33;;;;;;;14.13;12.18;;;4.00;99.90;;;;;;5058073;28;20157;-81
2021/03/19 05:15:07;;;;;;;12.82;11.05;;;4.10;99.90;;;;;;5040439;28;20165;-82
2021/03/19 05:17:33;;;;;;;14.23;11.57;;;4.00;99.90;;;;;;5040033;28;20181;-82
2021/03/19 05:20:12;;;;;;;16.73;12.38;;;4.10;99.90;;;;;;5057386;28;20185;-82
2021/03/19 05:22:38;;;;;;;15.20;12.55;;;4.10;99.90;;;;;;5041144;28;20177;-82
2021/03/19 05:25:10;;;;;;;17.45;13.80;;;4.10;99.90;;;;;;5058716;28;20176;-82
2021/03/19 05:27:36;;;;;;;14.15;11.82;;;4.20;99.90;;;;;;5040459;28;20173;-83
2021/03/19 05:30:04;;;;;;;14.87;11.90;;;4.20;99.90;;;;;;5027023;28;20228;-82
2021/03/19 05:32:33;;;;;;;14.15;11.75;;;4.20;99.90;;;;;;5020765;28;20205;-81
2021/03/19 05:34:59;;;;;;;13.85;11.40;;;4.30;99.90;;;;;;5036163;28;20161;-82
2021/03/19 05:37:28;;;;;;;13.60;11.77;;;4.30;99.90;;;;;;5036197;28;20626;-82
2021/03/19 05:39:59;;;;;;;16.38;12.80;;;4.30;99.90;;;;;;5037239;28;20565;-82
2021/03/19 05:42:38;;;;;;;12.05;10.60;;;4.30;99.90;;;;;;5037786;28;20550;-83
2021/03/19 05:45:17;;;;;;;13.38;10.32;;;4.30;99.90;;;;;;4990798;28;20556;-83
2021/03/19 05:47:45;;;;;;;12.65;11.25;;;4.30;99.90;;;;;;5035511;28;20192;-82
2021/03/19 05:50:23;;;;;;;17.40;13.30;;;4.30;99.90;;;;;;4998750;28;20198;-83
2021/03/19 05:52:49;;;;;;;14.52;12.45;;;4.30;99.90;;;;;;5015929;28;20588;-83
2021/03/19 05:55:18;;;;;;;18.73;14.57;;;4.30;99.90;;;;;;4999823;28;20181;-83
2021/03/19 05:57:45;;;;;;;15.02;12.10;;;4.30;99.90;;;;;;5014613;28;20640;-82
2021/03/19 06:00:23;;;;;;;19.98;12.75;;;4.30;99.90;;;;;;4996943;28;20182;-82
2021/03/19 06:02:51;;;;;;;15.82;13.35;;;4.30;99.90;;;;;;4994946;28;20199;-82
2021/03/19 06:05:25;;;;;;;17.37;14.73;;;4.40;99.90;;;;;;4999464;28;20185;-81
2021/03/19 06:08:06;;;;;;;16.65;14.15;;;4.40;99.90;;;;;;4975055;28;20603;-82
2021/03/19 06:10:45;;;;;;;15.45;13.38;;;4.40;99.90;;;;;;5010781;28;20269;-82
2021/03/19 06:13:44;;;;;;;15.77;13.55;;;4.40;99.90;;;;;;5017091;28;20174;-82
2021/03/19 06:16:28;;;;;;;15.80;11.90;;;4.50;99.90;;;;;;5014839;28;20198;-82
2021/03/19 06:18:57;;;;;;;16.58;12.10;;;4.50;99.90;;;;;;5013269;28;20198;-82
2021/03/19 06:21:35;;;;;;;11.48;10.27;;;4.60;99.90;;;;;;4996044;28;20523;-83
2021/03/19 06:24:25;;;;;;;12.02;8.80;;;4.60;99.90;;;;;;5022268;28;20225;-83
2021/03/19 06:26:53;;;;;;;14.20;11.30;;;4.60;99.90;;;;;;5015512;28;20226;-81
2021/03/19 06:29:32;;;;;;;12.60;10.80;;;4.70;99.90;;;;;;5015190;28;20194;-82
2021/03/19 06:32:03;;;;;;;12.00;10.70;;;4.70;99.90;;;;;;5016810;28;20166;-81
2021/03/19 06:35:19;;;;;;;11.63;10.02;;;4.70;99.90;;;;;;4999556;28;20591;-83
2021/03/19 06:37:50;;;;;;;11.10;9.90;;;4.80;99.90;;;;;;5001636;28;20189;-83
2021/03/19 06:40:31;;;;;;;15.27;11.05;;;4.90;99.90;;;;;;5012995;28;20194;-83
2021/03/19 06:43:27;;;;;;;10.93;9.15;;;4.90;99.90;;;;;;5012556;28;20210;-82
2021/03/19 06:46:13;;;;;;;12.63;10.57;;;5.00;99.90;;;;;;5008208;28;20569;-83
2021/03/19 06:48:43;;;;;;;12.90;10.50;;;5.00;99.90;;;;;;5015460;28;20303;-82
2021/03/19 06:51:25;;;;;;;11.65;9.27;;;5.00;99.90;;;;;;5016043;28;20165;-83
2021/03/19 06:54:07;;;;;;;16.48;12.60;;;5.10;99.90;;;;;;5013936;28;20185;-82
2021/03/19 06:56:34;;;;;;;13.10;10.68;;;5.10;99.90;;;;;;5018329;28;20260;-83
2021/03/19 06:59:20;;;;;;;13.63;12.07;;;5.20;99.90;;;;;;4989039;28;20249;-82
2021/03/19 07:01:46;;;;;;;12.23;10.93;;;5.30;99.90;;;;;;5032783;28;20177;-82
2021/03/19 07:04:32;;;;;;;11.53;10.37;;;5.40;99.90;;;;;;5032610;28;20205;-83
2021/03/19 07:07:17;;;;;;;11.23;10.13;;;5.40;99.90;;;;;;4999757;28;20585;-83
2021/03/19 07:09:44;;;;;;;12.32;11.02;;;5.50;99.90;;;;;;5033602;28;20666;-82
2021/03/19 07:12:57;;;;;;;14.80;12.45;;;5.60;99.90;;;;;;5015718;28;20170;-82
2021/03/19 07:15:51;;;;;;;15.50;12.68;;;5.70;99.90;;;;;;5023928;28;20574;-83
2021/03/19 07:18:23;;;;;;;13.65;12.23;;;5.80;99.90;;;;;;5015209;28;20178;-82
2021/03/19 07:21:00;;;;;;;11.57;10.35;;;5.80;99.90;;;;;;5032668;28;20228;-81
2021/03/19 07:23:36;;;;;;;11.38;9.75;;;5.90;99.90;;;;;;5032701;28;20196;-83
2021/03/19 07:26:29;;;;;;;14.52;9.85;;;6.00;99.90;;;;;;5033073;28;20175;-81
2021/03/19 07:29:17;;;;;;;11.63;9.68;;;6.00;99.90;;;;;;5032736;28;20185;-82
2021/03/19 07:31:56;;;;;;;10.35;8.50;;;6.00;99.90;;;;;;5015170;28;20161;-82
2021/03/19 07:34:45;;;;;;;12.55;9.93;;;6.20;99.90;;;;;;5032679;28;20197;-82
2021/03/19 07:37:35;;;;;;;13.80;10.25;;;6.30;99.90;;;;;;5014917;28;20162;-83
2021/03/19 07:40:08;;;;;;;14.75;10.93;;;6.90;99.90;;;;;;5015230;28;20268;-81
2021/03/19 07:42:51;;;;;;;11.82;9.73;;;7.70;99.90;;;;;;5032486;28;20201;-82
2021/03/19 07:45:25;;;;;;;11.90;10.15;;;8.60;99.90;;;;;;5019429;28;20188;-82
2021/03/19 07:48:19;;;;;;;12.68;11.38;;;9.70;99.90;;;;;;5014438;28;20173;-81
2021/03/19 07:51:19;;;;;;;11.98;10.43;;;10.80;99.90;;;;;;5022783;28;20352;-82
2021/03/19 07:54:35;;;;;;;12.93;11.25;;;11.90;99.90;;;;;;4992153;28;20171;-81
2021/03/19 07:57:09;;;;;;;10.63;9.53;;;12.90;99.90;;;;;;4963919;28;20191;-81
2021/03/19 07:59:56;;;;;;;10.60;9.50;;;13.90;99.90;;;;;;4988187;28;21251;-81
2021/03/19 08:02:33;;;;;;;9.47;8.57;;;14.80;99.90;;;;;;4996031;28;20577;-81
2021/03/19 08:05:24;;;;;;;10.10;9.20;;;15.70;99.90;;;;;;5014803;28;20637;-81
2021/03/19 08:08:13;;;;;;;9.87;8.87;;;16.50;99.90;;;;;;5023898;28;20590;-80
2021/03/19 08:10:54;;;;;;;9.90;9.00;;;17.20;99.90;;;;;;5019914;28;20628;-79
2021/03/19 08:13:35;;;;;;;9.67;8.77;;;17.90;99.90;;;;;;4993076;28;20573;-80
2021/03/19 08:16:11;;;;;;;7.53;6.83;;;18.50;99.90;;;;;;4992797;28;20573;-80
2021/03/19 08:18:46;;;;;;;8.60;7.70;;;19.10;99.90;;;;;;4993940;28;20633;-81
2021/03/19 08:21:30;;;;;;;11.00;8.70;;;19.70;99.90;;;;;;5029222;28;20602;-79
2021/03/19 08:24:17;;;;;;;8.27;7.43;;;20.30;99.90;;;;;;5034177;28;20655;-79
2021/03/19 08:26:58;;;;;;;7.17;6.57;;;20.60;99.90;;;;;;5014348;28;20627;-80
2021/03/19 08:29:52;;;;;;;7.67;7.00;;;21.00;99.90;;;;;;5002878;28;20648;-79
2021/03/19 08:32:42;;;;;;;8.43;7.63;;;21.30;99.90;;;;;;5011192;28;21205;-79
2021/03/19 08:35:25;;;;;;;5.93;5.43;;;21.50;96.20;;;;;;5025661;28;20576;-80
2021/03/19 08:38:12;;;;;;;5.63;5.23;;;21.80;96.90;;;;;;5013605;28;21151;-80
2021/03/19 08:40:59;;;;;;;5.50;5.00;;;22.20;95.90;;;;;;5024701;28;21060;-80
2021/03/19 08:43:40;;;;;;;5.30;4.90;;;22.60;94.80;;;;;;5004906;28;20621;-78
2021/03/19 08:46:39;;;;;;;5.07;4.60;;;22.90;94.00;;;;;;5011678;28;20609;-80
2021/03/19 08:49:25;;;;;;;5.97;5.37;;;22.90;91.50;;;;;;5003522;28;20633;-80
2021/03/19 08:51:54;;;;;;;7.30;6.60;;;22.90;87.30;;;;;;5006246;28;20711;-79
2021/03/19 08:54:32;;;;;;;7.15;6.55;;;22.20;66.60;;;;;;5009436;28;21108;-79
2021/03/19 08:57:04;;;;;;;5.27;4.77;;;22.00;62.30;;;;;;5011416;28;20181;-79
2021/03/19 08:59:33;;;;;;;5.20;4.80;;;22.40;67.70;;;;;;5012993;28;20700;-80
2021/03/19 09:02:24;;;;;;;4.30;4.00;;;22.70;69.60;;;;;;5027625;28;20948;-80
2021/03/19 09:04:53;;;;;;;5.50;4.90;;;23.00;63.10;;;;;;5013555;28;20627;-80
2021/03/19 09:07:40;;;;;;;4.13;3.73;;;23.00;61.60;;;;;;5013314;28;20602;-80
2021/03/19 09:10:18;;;;;;;4.27;3.87;;;23.20;68.40;;;;;;5020387;28;20707;-80
2021/03/19 09:12:56;;;;;;;4.07;3.50;;;23.40;67.10;;;;;;5016358;28;21139;-81
2021/03/19 09:15:24;;;;;;;3.17;2.63;;;23.40;67.10;;;;;;5011415;28;20668;-80
2021/03/19 09:17:58;;;;;;;4.27;3.20;;;23.30;67.30;;;;;;4993267;28;20632;-80
2021/03/19 09:20:36;;;;;;;3.80;3.40;;;23.00;59.80;;;;;;4996775;28;20650;-80
2021/03/19 09:23:11;;;;;;;2.97;2.77;;;23.00;63.40;;;;;;5026667;28;20628;-81
2021/03/19 09:25:47;;;;;;;3.70;3.40;;;23.00;62.60;;;;;;5013585;28;20576;-80
2021/03/19 09:28:55;;;;;;;3.60;3.30;;;22.60;59.60;;;;;;5028825;28;20702;-80
2021/03/19 09:31:24;;;;;;;3.77;3.40;;;21.70;55.30;;;;;;5031155;28;20158;-80
2021/03/19 09:34:00;;;;;;;4.10;2.77;;;21.40;56.00;;;;;;5030039;28;20646;-79
2021/03/19 09:36:57;;;;;;;3.70;3.10;;;21.30;57.60;;;;;;4999605;28;20676;-78
2021/03/19 09:39:59;;;;;;;3.50;3.20;;;20.90;55.20;;;;;;5030756;28;21140;-80
2021/03/19 09:42:28;;;;;;;3.83;2.47;;;20.10;52.90;;;;;;5030950;28;20664;-80
2021/03/19 09:45:20;;;;;;;4.40;1.97;;;19.40;52.50;;;;;;5031695;28;20624;-79
2021/03/19 09:48:20;;;;;;;2.57;2.10;;;19.10;55.50;;;;;;5034688;28;20935;-79
2021/03/19 09:51:00;;;;;;;2.20;1.77;;;19.20;56.80;;;;;;5012240;28;20659;-79
2021/03/19 09:53:39;;;;;;;2.00;1.70;;;19.50;58.20;;;;;;5034471;28;20576;-79
2021/03/19 09:56:21;;;;;;;3.40;2.83;;;19.80;56.40;;;;;;5032072;28;20738;-79
2021/03/19 09:58:56;;;;;;;2.20;1.87;;;19.70;51.80;;;;;;5034274;28;20236;-79
2021/03/19 10:01:27;;;;;;;1.87;1.20;;;20.30;56.60;;;;;;5027558;28;21135;-78
2021/03/19 10:03:57;;;;;;;1.60;1.30;;;21.00;57.30;;;;;;5016492;28;20628;-77
2021/03/19 10:06:25;;;;;;;1.87;1.20;;;21.50;58.40;;;;;;5034426;28;20956;-80
2021/03/19 10:08:51;;;;;;;2.33;1.40;;;22.10;57.70;;;;;;5016461;28;20598;-79
2021/03/19 10:11:18;;;;;;;1.90;1.30;;;22.40;57.40;;;;;;5034469;28;20917;-79
2021/03/19 10:13:44;;;;;;;1.73;1.10;;;22.70;56.40;;;;;;5038769;28;20622;-79
2021/03/19 10:16:21;;;;;;;1.87;1.37;;;22.70;54.30;;;;;;5034081;28;20568;-80
2021/03/19 10:18:51;;;;;;;2.27;1.50;;;22.70;53.90;;;;;;5031828;28;20615;-80
2021/03/19 10:21:23;;;;;;;1.60;1.30;;;22.70;55.10;;;;;;4983699;28;20630;-79
2021/03/19 10:24:00;;;;;;;2.23;1.57;;;22.70;54.90;;;;;;5032732;28;20628;-79
2021/03/19 10:26:33;;;;;;;2.47;1.50;;;22.90;55.30;;;;;;5021464;28;20594;-79
2021/03/19 10:29:24;;;;;;;1.77;1.67;;;22.90;52.60;;;;;;5017389;28;21257;-81
2021/03/19 10:31:54;;;;;;;2.70;1.40;;;22.80;50.90;;;;;;4989063;28;20724;-79
2021/03/19 10:34:36;;;;;;;2.97;1.33;;;22.30;47.30;;;;;;5027056;28;20541;-80
2021/03/19 10:37:06;;;;;;;1.90;0.90;;;22.20;50.10;;;;;;5015111;28;20615;-77
2021/03/19 10:39:32;;;;;;;1.70;1.23;;;22.30;52.50;;;;;;5005838;28;20609;-77
2021/03/19 10:42:16;;;;;;;1.70;1.38;;;22.30;52.00;;;;;;5015021;28;20711;-81
2021/03/19 10:45:11;;;;;;;2.37;1.00;;;21.80;46.70;;;;;;4998002;28;20628;-81
2021/03/19 10:48:06;;;;;;;1.30;0.83;;;21.60;48.80;;;;;;5013991;28;20616;-80
2021/03/19 10:50:52;;;;;;;1.50;1.00;;;21.30;48.10;;;;;;5018052;28;20624;-81
2021/03/19 10:53:25;;;;;;;2.67;1.10;;;20.90;47.40;;;;;;5014142;28;20574;-80
2021/03/19 10:55:54;;;;;;;1.70;0.90;;;20.20;45.90;;;;;;4995744;28;20584;-81
2021/03/19 10:58:19;;;;;;;2.00;1.23;;;19.90;48.30;;;;;;5012844;28;20804;-81
2021/03/19 11:00:47;;;;;;;3.97;1.33;;;19.30;45.40;;;;;;4980543;28;20273;-81
2021/03/19 11:03:31;;;;;;;1.63;0.90;;;19.30;48.00;;;;;;5013851;28;20191;-81
2021/03/19 11:06:07;;;;;;;1.30;0.90;;;19.40;48.20;;;;;;5014251;28;20660;-81
2021/03/19 11:08:35;;;;;;;1.30;0.80;;;19.40;47.90;;;;;;5013947;28;20565;-80
2021/03/19 11:11:04;;;;;;;2.10;1.30;;;19.40;48.50;;;;;;5012077;28;20751;-80
2021/03/19 11:13:35;;;;;;;1.60;1.00;;;19.20;44.60;;;;;;5013787;28;20181;-80
2021/03/19 11:16:26;;;;;;;1.53;1.00;;;19.20;47.40;;;;;;5015210;28;20570;-81
2021/03/19 11:19:15;;;;;;;1.90;1.00;;;19.30;48.00;;;;;;5014012;28;20746;-81
2021/03/19 11:21:43;;;;;;;1.70;0.87;;;19.20;42.50;;;;;;5014643;28;20170;-80
2021/03/19 11:24:15;;;;;;;1.47;0.70;;;19.30;45.80;;;;;;4997501;28;20618;-80
2021/03/19 11:27:10;;;;;;;1.40;0.90;;;19.30;46.00;;;;;;5002370;28;20572;-80
2021/03/19 11:29:41;;;;;;;1.47;0.90;;;19.20;47.30;;;;;;5014971;28;20651;-80
2021/03/19 11:32:31;;;;;;;1.90;1.40;;;19.30;47.80;;;;;;5013446;28;20740;-79
2021/03/19 11:35:11;;;;;;;1.77;1.10;;;19.30;43.90;;;;;;5015322;28;20175;-81
2021/03/19 11:37:42;;;;;;;2.50;0.80;;;19.30;45.90;;;;;;5013382;28;20585;-81
2021/03/19 11:40:12;;;;;;;1.87;0.90;;;19.00;45.60;;;;;;5014512;28;20730;-80
2021/03/19 11:42:50;;;;;;;1.33;0.80;;;18.60;44.10;;;;;;5014894;28;20664;-81
2021/03/19 11:45:21;;;;;;;2.10;0.80;;;18.30;44.80;;;;;;5014246;28;20589;-80
2021/03/19 11:47:58;;;;;;;1.77;1.00;;;18.00;45.20;;;;;;5013787;28;20582;-81
2021/03/19 11:50:30;;;;;;;1.73;0.80;;;17.80;45.90;;;;;;5020168;28;20636;-81
2021/03/19 11:53:00;;;;;;;1.50;0.80;;;17.40;45.20;;;;;;5013557;28;20608;-80
2021/03/19 11:55:34;;;;;;;1.30;0.80;;;17.10;45.30;;;;;;5014863;28;20560;-82
2021/03/19 11:58:00;;;;;;;1.30;0.80;;;16.80;45.50;;;;;;5014437;28;20568;-81
2021/03/19 12:00:31;;;;;;;1.87;0.80;;;16.40;45.10;;;;;;5032351;28;20618;-82
2021/03/19 12:03:24;;;;;;;1.40;0.90;;;16.10;46.10;;;;;;5035171;28;20706;-82
2021/03/19 12:05:50;;;;;;;1.93;0.90;;;15.50;45.00;;;;;;5032499;28;20571;-82
2021/03/19 12:08:15;;;;;;;1.77;0.93;;;15.40;46.20;;;;;;5014104;28;21131;-82
2021/03/19 12:10:41;;;;;;;1.60;0.77;;;15.30;46.30;;;;;;5031907;28;20185;-82
2021/03/19 12:13:14;;;;;;;1.80;0.90;;;15.20;46.60;;;;;;5014420;28;20197;-81
2021/03/19 12:15:41;;;;;;;1.70;1.10;;;15.20;47.80;;;;;;5014669;28;20900;-81
2021/03/19 12:18:07;;;;;;;2.07;0.80;;;15.20;48.70;;;;;;5031696;28;20565;-80
2021/03/19 12:20:33;;;;;;;1.50;0.90;;;15.30;48.10;;;;;;5013205;28;20790;-82
2021/03/19 12:22:59;;;;;;;1.50;0.80;;;15.60;46.50;;;;;;5031818;28;20194;-81
2021/03/19 12:25:31;;;;;;;1.43;0.73;;;15.80;47.30;;;;;;5014888;28;20940;-82
2021/03/19 12:27:58;;;;;;;1.67;0.83;;;15.90;47.10;;;;;;5013926;28;20565;-82
2021/03/19 12:30:28;;;;;;;2.10;0.70;;;16.10;47.60;;;;;;5031921;28;21213;-82
2021/03/19 12:32:54;;;;;;;2.47;0.87;;;16.10;48.10;;;;;;5014210;28;20568;-82
2021/03/19 12:35:22;;;;;;;3.78;1.00;;;16.10;46.90;;;;;;5014181;28;20702;-83
2021/03/19 12:37:51;;;;;;;2.13;0.90;;;16.00;47.00;;;;;;5031477;28;20173;-83
2021/03/19 12:40:21;;;;;;;1.27;0.80;;;15.90;47.20;;;;;;5039858;28;20576;-82
2021/03/19 12:42:48;;;;;;;1.60;0.90;;;15.80;47.70;;;;;;5014343;28;20670;-82
2021/03/19 12:45:14;;;;;;;1.20;0.70;;;15.80;48.00;;;;;;5022130;28;20557;-83
2021/03/19 12:47:42;;;;;;;1.80;0.90;;;15.90;48.40;;;;;;5054092;28;20643;-82
2021/03/19 12:50:18;;;;;;;2.03;0.80;;;15.80;45.60;;;;;;5052907;28;20604;-80
2021/03/19 12:52:46;;;;;;;3.60;1.43;;;15.70;47.00;;;;;;5053602;28;20173;-83
2021/03/19 12:55:12;;;;;;;1.30;0.90;;;15.40;45.40;;;;;;5054979;28;20561;-82
2021/03/19 12:57:38;;;;;;;1.50;0.80;;;15.30;46.00;;;;;;5053906;28;20725;-83
2021/03/19 13:00:21;;;;;;;1.20;0.77;;;15.20;46.10;;;;;;5019592;28;20231;-83
2021/03/19 13:02:46;;;;;;;1.30;0.80;;;15.10;45.70;;;;;;5015850;28;21303;-81
2021/03/19 13:05:15;;;;;;;1.43;0.70;;;14.90;45.80;;;;;;5015470;28;20166;-81
2021/03/19 13:07:41;;;;;;;1.10;0.60;;;14.90;46.20;;;;;;5032082;28;20256;-82
2021/03/19 13:10:08;;;;;;;1.30;0.70;;;14.90;46.70;;;;;;5032272;28;20584;-82
2021/03/19 13:12:34;;;;;;;1.40;0.70;;;14.80;46.60;;;;;;5014784;28;20568;-82
2021/03/19 13:15:00;;;;;;;1.40;0.60;;;14.70;46.80;;;;;;5032222;28;20963;-81
2021/03/19 13:17:27;;;;;;;1.65;0.90;;;14.60;47.00;;;;;;5032815;28;20493;-82
2021/03/19 13:20:04;;;;;;;1.80;1.00;;;14.50;46.90;;;;;;5017885;28;20185;-81
2021/03/19 13:22:30;;;;;;;1.42;1.00;;;14.30;46.70;;;;;;5001528;28;20671;-81
2021/03/19 13:24:58;;;;;;;1.13;0.70;;;14.00;46.50;;;;;;5035230;28;20601;-82
2021/03/19 13:27:24;;;;;;;1.45;0.90;;;13.80;46.60;;;;;;5034929;28;20196;-82
2021/03/19 13:29:50;;;;;;;1.40;0.80;;;13.60;46.30;;;;;;5035021;28;20186;-82
2021/03/19 13:32:18;;;;;;;2.15;1.33;;;13.40;46.80;;;;;;5023722;28;20181;-82